Terminal Aerodrome Forecast
Issued by NWS Cleveland, OH

Home | Current Version | Previous Version | Text Only | Print | Product List | Glossary Off
Versions: 1 2 3 4 5 6 7 8 9 10 11 12 13 14 15 16 17 18 19

669
FTUS41 KCLE 220524
TAFERI
TAF
KERI 220524Z 2206/2306 21011KT P6SM FEW045 BKN100
     FM221500 25012G20KT 6SM HZ BKN050
     FM230100 24006KT P6SM SCT150=

USA.gov is the U.S. government's official web portal to all federal, state and local government web resources and services.